Time;durP1;ratioP1;P1;durP2;ratioP2;P2;SDS_P1;SDS_P2;PMS_P1;PMS_P2;Temp;Humidity;BMP_temperature;BMP_pressure;BME280_temperature;BME280_humidity;BME280_pressure;Samples;Min_cycle;Max_cycle;Signal;HPM_P1;HPM_P2
2022/09/14 00:00:56;;;;;;;2.73;1.93;;;19.30;99.90;;;;;;5033950;28;20668;-50
2022/09/14 00:03:23;;;;;;;2.87;1.13;;;19.30;99.90;;;;;;5033950;28;20234;-50
2022/09/14 00:05:50;;;;;;;1.03;1.03;;;19.30;99.90;;;;;;5032916;28;20198;-51
2022/09/14 00:08:18;;;;;;;3.83;1.70;;;19.20;99.90;;;;;;5035049;28;20718;-51
2022/09/14 00:10:47;;;;;;;3.13;1.43;;;19.20;99.90;;;;;;5034162;28;20211;-50
2022/09/14 00:13:15;;;;;;;2.20;1.43;;;19.30;99.90;;;;;;5033913;28;20676;-50
2022/09/14 00:15:43;;;;;;;1.30;1.30;;;19.30;99.90;;;;;;5025615;28;20202;-50
2022/09/14 00:18:12;;;;;;;2.23;1.43;;;19.20;99.90;;;;;;5034305;28;20222;-50
2022/09/14 00:20:39;;;;;;;1.40;1.27;;;19.20;99.90;;;;;;5034844;28;20210;-51
2022/09/14 00:23:06;;;;;;;2.00;1.00;;;19.20;99.90;;;;;;5025173;28;20218;-49
2022/09/14 00:25:34;;;;;;;2.67;1.13;;;19.10;99.90;;;;;;5034654;28;20206;-50
2022/09/14 00:28:02;;;;;;;1.87;1.70;;;19.10;99.90;;;;;;5032822;28;20230;-50
2022/09/14 00:30:29;;;;;;;4.30;1.10;;;19.10;99.90;;;;;;5033423;28;20695;-50
2022/09/14 00:32:56;;;;;;;2.80;1.43;;;19.10;99.90;;;;;;5029315;28;20215;-50
2022/09/14 00:35:23;;;;;;;1.53;1.37;;;19.10;99.90;;;;;;5029357;28;20203;-50
2022/09/14 00:37:51;;;;;;;2.33;1.20;;;19.00;99.90;;;;;;5024160;28;20230;-50
2022/09/14 00:40:19;;;;;;;2.77;1.30;;;19.00;99.90;;;;;;5025747;28;20198;-50
2022/09/14 00:42:47;;;;;;;1.77;1.63;;;19.00;99.90;;;;;;5033793;28;20253;-50
2022/09/14 00:45:17;;;;;;;1.40;1.30;;;19.00;99.90;;;;;;5032827;28;20202;-50
2022/09/14 00:47:45;;;;;;;1.77;1.40;;;19.00;99.90;;;;;;5031921;28;20218;-50
2022/09/14 00:50:12;;;;;;;3.37;1.30;;;19.00;99.90;;;;;;5034473;28;20214;-49
2022/09/14 00:52:44;;;;;;;1.33;1.23;;;19.00;99.90;;;;;;5032454;28;20925;-50
2022/09/14 00:55:14;;;;;;;2.27;2.07;;;19.00;99.90;;;;;;5032403;28;20209;-50
2022/09/14 00:57:49;;;;;;;1.70;1.60;;;19.00;99.90;;;;;;5032512;28;20222;-50
2022/09/14 01:00:19;;;;;;;1.73;1.13;;;19.10;99.90;;;;;;5034063;28;20763;-50
2022/09/14 01:02:46;;;;;;;3.17;1.17;;;19.10;99.90;;;;;;5033963;28;20227;-50
2022/09/14 01:05:14;;;;;;;2.10;1.10;;;19.20;99.90;;;;;;5025428;28;20198;-50
2022/09/14 01:08:16;;;;;;;3.43;1.20;;;19.20;99.90;;;;;;5032719;28;20246;-50
2022/09/14 01:10:54;;;;;;;1.60;0.90;;;19.20;99.90;;;;;;5033308;28;20213;-50
2022/09/14 01:13:37;;;;;;;4.13;0.97;;;19.20;99.90;;;;;;5033800;28;20198;-50
2022/09/14 01:16:17;;;;;;;2.30;0.90;;;19.20;99.90;;;;;;5013857;28;20211;-51
2022/09/14 01:18:47;;;;;;;0.67;0.60;;;19.30;99.90;;;;;;5021892;28;20781;-50
2022/09/14 01:21:18;;;;;;;1.33;0.80;;;19.30;99.90;;;;;;5026969;28;20217;-50
2022/09/14 01:23:53;;;;;;;1.07;1.07;;;19.30;99.90;;;;;;5030785;28;20206;-50
2022/09/14 01:26:39;;;;;;;1.37;1.30;;;19.30;99.90;;;;;;5026542;28;20199;-51
2022/09/14 01:29:13;;;;;;;0.80;0.80;;;19.40;99.90;;;;;;5021891;28;20202;-50
2022/09/14 01:31:48;;;;;;;1.33;0.97;;;19.30;99.90;;;;;;5028294;28;20229;-50
2022/09/14 01:34:23;;;;;;;0.60;0.60;;;19.30;99.90;;;;;;5033018;28;20201;-50
2022/09/14 01:36:56;;;;;;;1.57;0.80;;;19.40;99.90;;;;;;5033092;28;20666;-50
2022/09/14 01:39:23;;;;;;;1.73;1.00;;;19.50;99.90;;;;;;5032379;28;20202;-50
2022/09/14 01:41:52;;;;;;;0.80;0.80;;;19.70;99.90;;;;;;5033127;28;20242;-50
2022/09/14 01:44:25;;;;;;;2.70;1.10;;;19.70;99.90;;;;;;5030935;28;20207;-50
2022/09/14 01:46:55;;;;;;;1.07;0.70;;;19.70;99.90;;;;;;5032953;28;20209;-49
2022/09/14 01:49:27;;;;;;;3.63;0.87;;;19.60;99.90;;;;;;5032845;28;20203;-51
2022/09/14 01:51:58;;;;;;;1.83;1.33;;;19.60;99.90;;;;;;5032973;28;20237;-50
2022/09/14 01:54:30;;;;;;;1.20;0.80;;;19.60;99.90;;;;;;5030873;28;20700;-50
2022/09/14 01:57:00;;;;;;;2.33;1.00;;;19.50;99.90;;;;;;5032981;28;20222;-51
2022/09/14 01:59:33;;;;;;;3.00;0.90;;;19.50;99.90;;;;;;5021470;28;20198;-50
2022/09/14 02:02:04;;;;;;;2.13;1.00;;;19.50;99.90;;;;;;5032772;28;20301;-49
2022/09/14 02:04:36;;;;;;;0.80;0.80;;;19.60;99.90;;;;;;5031451;28;20202;-50
2022/09/14 02:07:03;;;;;;;2.43;0.60;;;19.50;99.90;;;;;;5012856;28;20594;-50
2022/09/14 02:09:31;;;;;;;1.40;0.60;;;19.50;99.90;;;;;;5022883;28;20211;-50
2022/09/14 02:11:59;;;;;;;1.33;0.60;;;19.50;99.90;;;;;;5031294;28;20195;-50
2022/09/14 02:14:27;;;;;;;2.20;0.80;;;19.50;99.90;;;;;;5026567;28;20218;-49
2022/09/14 02:16:56;;;;;;;2.77;0.70;;;19.50;99.90;;;;;;5028997;28;20226;-50
2022/09/14 02:19:24;;;;;;;0.63;0.53;;;19.50;99.90;;;;;;5032361;28;20676;-50
2022/09/14 02:21:52;;;;;;;1.30;1.30;;;19.40;99.90;;;;;;5032804;28;20591;-50
2022/09/14 02:24:19;;;;;;;1.33;0.67;;;19.40;99.90;;;;;;5032426;28;20206;-50
2022/09/14 02:26:48;;;;;;;1.43;0.60;;;19.50;99.90;;;;;;5023157;28;20677;-50
2022/09/14 02:29:15;;;;;;;2.40;0.67;;;19.50;99.90;;;;;;5024520;28;20214;-49
2022/09/14 02:31:58;;;;;;;0.60;0.60;;;19.50;99.90;;;;;;5022637;28;20199;-50
2022/09/14 02:34:34;;;;;;;1.83;1.30;;;19.50;99.90;;;;;;5032004;28;20205;-50
2022/09/14 02:37:06;;;;;;;6.87;1.07;;;19.40;99.90;;;;;;5032073;28;20222;-50
2022/09/14 02:39:40;;;;;;;0.57;0.57;;;19.40;99.90;;;;;;5031127;28;20579;-50
2022/09/14 02:42:17;;;;;;;2.67;0.77;;;19.40;99.90;;;;;;5028378;28;20219;-50
2022/09/14 02:45:01;;;;;;;1.40;0.60;;;19.30;99.90;;;;;;5031910;28;20209;-50
2022/09/14 02:47:35;;;;;;;1.73;0.90;;;19.30;99.90;;;;;;5024011;28;20227;-50
2022/09/14 02:50:12;;;;;;;0.70;0.60;;;19.30;99.90;;;;;;5023897;28;20668;-51
2022/09/14 02:52:51;;;;;;;1.47;1.00;;;19.30;99.90;;;;;;5029778;28;20652;-50
2022/09/14 02:55:20;;;;;;;2.03;1.77;;;19.20;99.90;;;;;;5030483;28;20281;-49
2022/09/14 02:58:04;;;;;;;1.90;1.80;;;19.20;99.90;;;;;;5031688;28;20222;-49
2022/09/14 03:00:35;;;;;;;1.90;1.60;;;19.20;99.90;;;;;;5029616;28;20700;-50
2022/09/14 03:03:04;;;;;;;0.80;0.80;;;19.20;99.90;;;;;;5025042;28;20226;-50
2022/09/14 03:05:32;;;;;;;1.80;1.13;;;19.20;99.90;;;;;;5025821;28;20195;-49
2022/09/14 03:08:00;;;;;;;2.80;1.00;;;19.30;99.90;;;;;;5030560;28;20218;-50
2022/09/14 03:10:27;;;;;;;1.57;1.37;;;19.30;99.90;;;;;;5021369;28;20257;-50
2022/09/14 03:12:54;;;;;;;2.60;1.00;;;19.30;99.90;;;;;;5033052;28;20201;-50
2022/09/14 03:15:21;;;;;;;2.87;1.00;;;19.20;99.90;;;;;;5024231;28;20582;-49
2022/09/14 03:17:50;;;;;;;1.03;1.03;;;19.20;99.90;;;;;;5029494;28;20225;-51
2022/09/14 03:20:21;;;;;;;1.53;1.20;;;19.10;99.90;;;;;;5024329;28;20802;-49
2022/09/14 03:22:49;;;;;;;0.90;0.90;;;19.10;99.90;;;;;;5033730;28;20214;-51
2022/09/14 03:25:17;;;;;;;2.90;1.17;;;19.10;99.90;;;;;;5035461;28;20275;-50
2022/09/14 03:27:49;;;;;;;2.10;1.10;;;19.10;99.90;;;;;;5034305;28;20226;-50
2022/09/14 03:30:16;;;;;;;1.83;0.90;;;19.10;99.90;;;;;;5034313;28;20237;-50
2022/09/14 03:32:43;;;;;;;2.07;1.23;;;19.10;99.90;;;;;;5027049;28;20198;-50
2022/09/14 03:35:10;;;;;;;0.80;0.80;;;19.10;99.90;;;;;;5032661;28;20211;-50
2022/09/14 03:37:40;;;;;;;3.47;0.93;;;19.20;99.90;;;;;;5032340;28;20221;-50
2022/09/14 03:40:09;;;;;;;3.17;1.00;;;19.20;99.90;;;;;;5030491;28;20272;-50
2022/09/14 03:42:36;;;;;;;1.43;0.80;;;19.10;99.90;;;;;;5030790;28;20229;-50
2022/09/14 03:45:03;;;;;;;0.80;0.80;;;19.10;99.90;;;;;;5030311;28;20253;-50
2022/09/14 03:47:30;;;;;;;1.67;1.00;;;19.10;99.90;;;;;;5031777;28;20400;-50
2022/09/14 03:49:57;;;;;;;3.00;0.90;;;19.20;99.90;;;;;;5028396;28;20280;-50
2022/09/14 03:52:24;;;;;;;1.17;0.83;;;19.10;99.90;;;;;;5029847;28;20277;-50
2022/09/14 03:54:53;;;;;;;1.43;0.90;;;19.10;99.90;;;;;;5032243;28;20195;-50
2022/09/14 03:57:20;;;;;;;1.40;1.03;;;19.00;99.90;;;;;;5029084;28;20219;-50
2022/09/14 03:59:47;;;;;;;1.07;0.80;;;19.00;99.90;;;;;;5035027;28;20202;-50
2022/09/14 04:02:14;;;;;;;1.67;1.00;;;19.00;99.90;;;;;;5032819;28;20202;-50
2022/09/14 04:04:41;;;;;;;1.57;0.60;;;19.00;99.90;;;;;;5029423;28;20206;-50
2022/09/14 04:07:08;;;;;;;1.73;1.43;;;18.90;99.90;;;;;;5028421;28;20225;-50
2022/09/14 04:09:35;;;;;;;3.80;1.20;;;18.90;99.90;;;;;;5031493;28;20210;-50
2022/09/14 04:12:04;;;;;;;2.73;1.10;;;18.90;99.90;;;;;;5029711;28;20198;-50
2022/09/14 04:14:31;;;;;;;1.23;0.80;;;18.80;99.90;;;;;;5032804;28;20205;-50
2022/09/14 04:16:58;;;;;;;2.73;0.97;;;18.80;99.90;;;;;;5033501;28;20719;-51
2022/09/14 04:19:25;;;;;;;3.93;0.93;;;18.80;99.90;;;;;;5031877;28;20202;-51
2022/09/14 04:21:52;;;;;;;1.10;0.87;;;18.80;99.90;;;;;;5033330;28;20206;-50
2022/09/14 04:24:19;;;;;;;1.93;1.20;;;18.80;99.90;;;;;;5034789;28;20257;-50
2022/09/14 04:26:46;;;;;;;1.40;1.30;;;18.80;99.90;;;;;;5032368;28;20209;-50
2022/09/14 04:29:14;;;;;;;0.93;0.90;;;18.80;99.90;;;;;;5032173;28;20199;-49
2022/09/14 04:31:42;;;;;;;0.80;0.80;;;18.80;99.90;;;;;;5031630;28;20239;-49
2022/09/14 04:34:12;;;;;;;2.23;0.80;;;18.70;99.90;;;;;;5034062;28;20272;-49
2022/09/14 04:36:39;;;;;;;1.03;0.93;;;18.70;99.90;;;;;;5031430;28;20618;-50
2022/09/14 04:39:09;;;;;;;1.20;1.10;;;18.70;99.90;;;;;;5031772;28;20202;-50
2022/09/14 04:41:36;;;;;;;1.20;0.90;;;18.70;99.90;;;;;;5029939;28;20342;-49
2022/09/14 04:44:03;;;;;;;4.20;0.80;;;18.70;99.90;;;;;;5024551;28;20255;-50
2022/09/14 04:46:34;;;;;;;2.60;1.40;;;18.70;99.90;;;;;;5023096;28;20669;-50
2022/09/14 04:49:02;;;;;;;1.43;1.00;;;18.70;99.90;;;;;;5031188;28;20209;-50
2022/09/14 04:51:32;;;;;;;2.33;1.20;;;18.70;99.90;;;;;;5024395;28;20664;-50
2022/09/14 04:54:00;;;;;;;4.23;1.50;;;18.70;99.90;;;;;;5032184;28;20194;-50
2022/09/14 04:56:28;;;;;;;0.80;0.80;;;18.80;99.90;;;;;;5033660;28;20203;-50
2022/09/14 04:58:57;;;;;;;2.10;1.10;;;18.80;99.90;;;;;;5029663;28;20284;-49
2022/09/14 05:01:26;;;;;;;1.57;1.00;;;18.80;99.90;;;;;;5031618;28;20229;-50
2022/09/14 05:03:56;;;;;;;2.60;1.00;;;18.80;99.90;;;;;;5029053;28;20722;-50
2022/09/14 05:06:24;;;;;;;1.70;1.40;;;18.80;99.90;;;;;;5032130;28;20194;-50
2022/09/14 05:08:53;;;;;;;4.20;2.30;;;18.90;99.90;;;;;;5030535;28;20229;-50
2022/09/14 05:11:22;;;;;;;2.73;1.10;;;18.90;99.90;;;;;;5030353;28;20684;-50
2022/09/14 05:13:50;;;;;;;1.23;0.90;;;18.90;99.90;;;;;;5031317;28;20202;-50
2022/09/14 05:16:18;;;;;;;4.47;1.33;;;18.90;99.90;;;;;;5033195;28;20260;-49
2022/09/14 05:18:46;;;;;;;1.33;1.20;;;19.00;99.90;;;;;;5031212;28;20218;-50
2022/09/14 05:21:16;;;;;;;1.13;0.97;;;19.00;99.90;;;;;;5027341;28;20203;-50
2022/09/14 05:23:44;;;;;;;3.47;1.10;;;19.00;99.90;;;;;;5031352;28;20288;-49
2022/09/14 05:26:11;;;;;;;1.13;1.13;;;19.00;99.90;;;;;;5027304;28;20244;-49
2022/09/14 05:28:38;;;;;;;1.33;1.00;;;19.00;99.90;;;;;;5023363;28;20705;-50
2022/09/14 05:31:06;;;;;;;2.00;1.30;;;19.00;99.90;;;;;;5030246;28;20214;-49
2022/09/14 05:33:34;;;;;;;2.80;1.07;;;19.00;99.90;;;;;;5027752;28;20611;-49
2022/09/14 05:36:02;;;;;;;1.30;1.20;;;19.00;99.90;;;;;;5030882;28;20260;-50
2022/09/14 05:38:33;;;;;;;3.60;1.10;;;19.00;99.90;;;;;;5031242;28;20229;-49
2022/09/14 05:41:00;;;;;;;1.67;0.90;;;19.00;99.90;;;;;;5031763;28;20190;-49
2022/09/14 05:43:29;;;;;;;2.27;1.57;;;19.00;99.90;;;;;;5028605;28;20218;-49
2022/09/14 05:45:56;;;;;;;3.00;1.53;;;19.10;99.90;;;;;;5031923;28;20206;-48
2022/09/14 05:48:23;;;;;;;1.40;1.33;;;19.00;99.90;;;;;;5032631;28;20230;-48
2022/09/14 05:51:00;;;;;;;5.37;1.50;;;19.00;99.90;;;;;;5032926;28;20565;-50
2022/09/14 05:53:28;;;;;;;2.10;1.10;;;19.00;99.90;;;;;;5031491;28;20206;-48
2022/09/14 05:56:05;;;;;;;1.27;0.97;;;19.10;99.90;;;;;;5026652;28;20565;-49
2022/09/14 05:58:32;;;;;;;3.50;1.83;;;19.20;99.90;;;;;;5022818;28;20273;-49
2022/09/14 06:01:06;;;;;;;3.07;1.37;;;19.30;99.90;;;;;;5032863;28;20548;-48
2022/09/14 06:03:33;;;;;;;3.00;1.10;;;19.30;99.90;;;;;;5030775;28;20218;-49
2022/09/14 06:06:01;;;;;;;1.80;1.43;;;19.50;99.90;;;;;;5030955;28;20626;-49
2022/09/14 06:08:28;;;;;;;0.80;0.80;;;19.60;99.90;;;;;;5032515;28;20218;-49
2022/09/14 06:10:55;;;;;;;1.43;1.13;;;19.70;99.90;;;;;;5032627;28;20206;-50
2022/09/14 06:13:26;;;;;;;2.43;2.23;;;19.80;99.90;;;;;;5021103;28;20210;-49
2022/09/14 06:15:53;;;;;;;2.03;1.87;;;19.80;99.90;;;;;;5021769;28;20205;-49
2022/09/14 06:18:20;;;;;;;1.87;1.77;;;19.90;99.90;;;;;;5032015;28;20253;-50
2022/09/14 06:20:51;;;;;;;1.57;1.47;;;20.00;99.90;;;;;;5023145;28;20211;-48
2022/09/14 06:23:22;;;;;;;1.00;0.90;;;20.00;99.90;;;;;;5021902;28;20218;-48
2022/09/14 06:25:49;;;;;;;4.20;1.00;;;20.10;99.90;;;;;;5028336;28;20202;-49
2022/09/14 06:28:16;;;;;;;3.93;0.87;;;20.30;99.90;;;;;;5023005;28;20222;-49
2022/09/14 06:30:45;;;;;;;1.97;0.80;;;20.30;99.90;;;;;;5024770;28;20207;-49
2022/09/14 06:33:12;;;;;;;4.50;1.10;;;20.50;99.90;;;;;;5021898;28;20202;-49
2022/09/14 06:35:40;;;;;;;4.37;1.00;;;20.40;99.90;;;;;;5029480;28;20308;-50
2022/09/14 06:38:07;;;;;;;2.30;0.97;;;20.30;99.90;;;;;;5024418;28;20297;-49
2022/09/14 06:40:35;;;;;;;0.80;0.80;;;20.30;99.90;;;;;;5031593;28;20214;-49
2022/09/14 06:43:02;;;;;;;0.93;0.93;;;20.50;99.90;;;;;;5031959;28;20214;-49
2022/09/14 06:45:30;;;;;;;4.00;1.20;;;20.50;99.90;;;;;;5031942;28;20206;-49
2022/09/14 06:47:58;;;;;;;1.00;1.00;;;20.70;99.90;;;;;;5030569;28;20304;-49
2022/09/14 06:50:25;;;;;;;2.03;1.00;;;21.00;99.90;;;;;;5023953;28;20207;-49
2022/09/14 06:52:52;;;;;;;2.30;0.90;;;21.00;99.90;;;;;;5028343;28;20519;-49
2022/09/14 06:55:20;;;;;;;2.00;1.10;;;21.20;99.90;;;;;;5031061;28;20674;-49
2022/09/14 06:57:48;;;;;;;0.83;0.70;;;21.20;99.90;;;;;;5028961;28;20238;-50
2022/09/14 07:00:16;;;;;;;0.80;0.80;;;21.20;99.90;;;;;;5025539;28;20226;-49
2022/09/14 07:02:43;;;;;;;6.83;0.70;;;21.10;99.90;;;;;;5028346;28;20222;-49
2022/09/14 07:05:12;;;;;;;3.03;0.93;;;21.10;99.90;;;;;;5027143;28;20225;-49
2022/09/14 07:07:39;;;;;;;4.73;0.87;;;21.10;99.90;;;;;;5031143;28;20280;-49
2022/09/14 07:10:07;;;;;;;3.60;0.87;;;21.00;99.90;;;;;;5031307;28;20206;-49
2022/09/14 07:12:34;;;;;;;1.63;1.50;;;21.00;99.90;;;;;;5030694;28;20210;-50
2022/09/14 07:15:03;;;;;;;2.63;1.10;;;20.90;99.90;;;;;;5031823;28;20191;-50
2022/09/14 07:17:30;;;;;;;2.13;1.10;;;20.90;99.90;;;;;;5022835;28;20229;-50
2022/09/14 07:19:57;;;;;;;2.43;0.83;;;20.90;99.90;;;;;;5031632;28;20201;-48
2022/09/14 07:22:26;;;;;;;1.00;1.00;;;20.90;99.90;;;;;;5031379;28;20603;-49
2022/09/14 07:24:53;;;;;;;0.80;0.80;;;20.90;99.90;;;;;;5022595;28;20222;-49
2022/09/14 07:27:20;;;;;;;3.90;0.80;;;20.90;99.90;;;;;;5031301;28;20226;-50
2022/09/14 07:29:47;;;;;;;3.73;1.00;;;21.00;99.90;;;;;;5031148;28;20225;-49
2022/09/14 07:32:14;;;;;;;4.47;1.27;;;21.10;99.90;;;;;;5030938;28;20608;-50
2022/09/14 07:34:41;;;;;;;3.23;1.00;;;21.00;99.90;;;;;;5021682;28;20202;-49
2022/09/14 07:37:08;;;;;;;1.43;1.10;;;21.00;99.90;;;;;;5023830;28;20700;-50
2022/09/14 07:39:36;;;;;;;1.37;1.37;;;21.00;99.90;;;;;;5031152;28;20206;-49
2022/09/14 07:42:03;;;;;;;3.00;0.80;;;21.10;99.90;;;;;;5030871;28;20267;-49
2022/09/14 07:44:30;;;;;;;3.30;1.00;;;21.20;99.90;;;;;;5022691;28;20225;-50
2022/09/14 07:46:57;;;;;;;5.03;0.70;;;21.40;99.90;;;;;;5028340;28;20222;-49
2022/09/14 07:49:24;;;;;;;2.30;0.73;;;21.60;99.90;;;;;;5034673;28;20202;-49
2022/09/14 07:51:53;;;;;;;1.77;0.80;;;22.00;99.90;;;;;;5031409;28;20202;-49
2022/09/14 07:54:20;;;;;;;2.20;0.70;;;22.20;99.90;;;;;;5031821;28;20256;-49
2022/09/14 07:56:49;;;;;;;0.70;0.70;;;22.50;99.90;;;;;;5034170;28;20640;-49
2022/09/14 07:59:17;;;;;;;1.20;0.53;;;22.60;99.90;;;;;;5031013;28;20741;-49
2022/09/14 08:01:45;;;;;;;3.57;0.97;;;22.70;99.90;;;;;;5050988;28;20209;-49
2022/09/14 08:04:12;;;;;;;0.83;0.83;;;22.80;99.90;;;;;;5037774;28;20226;-48
2022/09/14 08:06:39;;;;;;;5.60;0.80;;;22.80;99.90;;;;;;5032193;28;20256;-49
2022/09/14 08:09:07;;;;;;;1.23;0.83;;;22.90;99.90;;;;;;5034919;28;20205;-49
2022/09/14 08:11:34;;;;;;;2.83;0.70;;;22.80;99.90;;;;;;5035907;28;20730;-49
2022/09/14 08:14:05;;;;;;;1.00;1.00;;;22.80;99.90;;;;;;5034339;28;20210;-49
2022/09/14 08:16:34;;;;;;;2.40;0.80;;;22.80;99.90;;;;;;5034893;28;20288;-50
2022/09/14 08:19:02;;;;;;;2.63;1.00;;;22.90;99.90;;;;;;5034653;28;20241;-50
2022/09/14 08:21:31;;;;;;;3.63;0.70;;;22.90;99.90;;;;;;5034117;28;20696;-49
2022/09/14 08:24:01;;;;;;;2.67;0.93;;;22.90;99.90;;;;;;5025515;28;20214;-49
2022/09/14 08:26:28;;;;;;;3.40;0.70;;;22.80;99.90;;;;;;5034520;28;20281;-49
2022/09/14 08:28:58;;;;;;;2.73;1.07;;;22.80;99.90;;;;;;5032795;28;20222;-50
2022/09/14 08:31:27;;;;;;;1.20;0.93;;;22.70;99.90;;;;;;5034331;28;20213;-49
2022/09/14 08:33:57;;;;;;;0.63;0.63;;;22.60;99.90;;;;;;5030664;28;20249;-50
2022/09/14 08:36:27;;;;;;;2.37;0.90;;;22.50;99.90;;;;;;5034338;28;20198;-49
2022/09/14 08:38:54;;;;;;;2.97;1.07;;;22.40;99.90;;;;;;5033946;28;20727;-50
2022/09/14 08:41:28;;;;;;;2.67;1.43;;;22.50;99.90;;;;;;5032315;28;20206;-48
2022/09/14 08:43:59;;;;;;;1.53;0.97;;;22.40;99.90;;;;;;5032861;28;20226;-49
2022/09/14 08:46:31;;;;;;;2.67;1.20;;;22.50;99.90;;;;;;5034109;28;20256;-50
2022/09/14 08:49:01;;;;;;;1.30;1.20;;;22.60;99.90;;;;;;5034322;28;20226;-49
2022/09/14 08:51:28;;;;;;;7.13;1.43;;;22.70;99.90;;;;;;5033037;28;20203;-50
2022/09/14 08:53:58;;;;;;;3.70;1.30;;;22.90;99.90;;;;;;5032281;28;20293;-49
2022/09/14 08:56:30;;;;;;;3.80;1.23;;;23.10;99.90;;;;;;5024834;28;20256;-50
2022/09/14 08:59:11;;;;;;;0.93;0.93;;;23.40;99.90;;;;;;5032915;28;20218;-49
2022/09/14 09:01:47;;;;;;;4.03;1.00;;;23.80;99.90;;;;;;5023323;28;20202;-49
2022/09/14 09:04:44;;;;;;;2.87;1.33;;;24.10;99.90;;;;;;5025637;28;20228;-49
2022/09/14 09:07:19;;;;;;;2.80;2.00;;;24.40;99.90;;;;;;5033515;28;20272;-49
2022/09/14 09:09:48;;;;;;;3.03;1.40;;;24.50;99.90;;;;;;5033614;28;20205;-49
2022/09/14 09:12:18;;;;;;;1.90;0.90;;;24.60;99.90;;;;;;5031621;28;20198;-50
2022/09/14 09:14:51;;;;;;;27.87;8.80;;;24.60;99.90;;;;;;5033424;28;20264;-50
2022/09/14 09:17:25;;;;;;;1.50;1.40;;;24.50;99.90;;;;;;5032482;28;20273;-49
2022/09/14 09:20:02;;;;;;;9.00;2.27;;;24.40;99.90;;;;;;5033019;28;20198;-49
2022/09/14 09:22:35;;;;;;;6.20;2.10;;;24.40;99.90;;;;;;5032303;28;20297;-50
2022/09/14 09:25:04;;;;;;;2.60;1.20;;;24.30;99.90;;;;;;5033001;28;20218;-49
2022/09/14 09:27:31;;;;;;;12.73;2.17;;;24.30;99.90;;;;;;5033712;28;20300;-49
2022/09/14 09:29:58;;;;;;;1.23;0.90;;;24.60;99.90;;;;;;5033126;28;20268;-49
2022/09/14 09:32:27;;;;;;;1.50;1.40;;;24.70;99.90;;;;;;5032231;28;20202;-49
2022/09/14 09:34:54;;;;;;;4.03;1.77;;;24.90;99.90;;;;;;5028440;28;20258;-49
2022/09/14 09:37:23;;;;;;;1.73;0.90;;;24.90;99.90;;;;;;5033102;28;20222;-49
2022/09/14 09:39:51;;;;;;;2.00;1.70;;;24.90;99.90;;;;;;5033418;28;20260;-49
2022/09/14 09:42:22;;;;;;;2.80;1.20;;;25.00;99.90;;;;;;5032003;28;20210;-49
2022/09/14 09:45:09;;;;;;;4.83;1.40;;;25.20;99.90;;;;;;5025366;28;20225;-49
2022/09/14 09:47:39;;;;;;;1.97;1.20;;;25.40;99.90;;;;;;5032986;28;20257;-50
2022/09/14 09:50:17;;;;;;;4.93;1.40;;;25.70;99.90;;;;;;5026061;28;20230;-48
2022/09/14 09:52:50;;;;;;;1.63;1.47;;;25.70;99.90;;;;;;5031669;28;20210;-50
2022/09/14 09:55:19;;;;;;;4.30;1.30;;;25.70;99.90;;;;;;5032614;28;20256;-49
2022/09/14 09:57:46;;;;;;;1.10;1.10;;;25.70;99.90;;;;;;5023517;28;20958;-50
2022/09/14 10:00:22;;;;;;;1.38;1.00;;;25.90;99.90;;;;;;5032367;28;20730;-48
2022/09/14 10:02:51;;;;;;;3.00;1.85;;;25.90;99.90;;;;;;5029797;28;20617;-49
2022/09/14 10:05:22;;;;;;;7.28;3.08;;;26.40;99.90;;;;;;5037397;28;20218;-51
2022/09/14 10:07:54;;;;;;;5.15;2.28;;;26.40;99.90;;;;;;5032367;28;20305;-51
2022/09/14 10:10:25;;;;;;;4.10;2.58;;;26.60;99.90;;;;;;5032614;28;20203;-51
2022/09/14 10:12:55;;;;;;;4.18;1.40;;;27.20;99.90;;;;;;5032688;28;20285;-49
2022/09/14 10:15:25;;;;;;;1.70;1.60;;;27.90;99.90;;;;;;5023409;28;20622;-52
2022/09/14 10:18:17;;;;;;;5.25;1.35;;;28.30;99.90;;;;;;5032323;28;20681;-52
2022/09/14 10:20:45;;;;;;;5.07;1.60;;;28.40;99.90;;;;;;5032137;28;20635;-49
2022/09/14 10:23:23;;;;;;;2.60;1.35;;;28.00;99.90;;;;;;5031287;28;20207;-52
2022/09/14 10:25:52;;;;;;;7.90;2.50;;;28.20;99.90;;;;;;5028368;28;20226;-51
2022/09/14 10:28:25;;;;;;;4.20;1.52;;;28.70;99.90;;;;;;5032026;28;20346;-50
2022/09/14 10:30:59;;;;;;;2.58;1.60;;;29.20;99.90;;;;;;5031164;28;20215;-51
2022/09/14 10:33:28;;;;;;;2.30;1.15;;;29.60;99.90;;;;;;5031393;28;20199;-51
2022/09/14 10:36:04;;;;;;;3.95;1.70;;;29.70;99.90;;;;;;5015452;28;20199;-49
2022/09/14 10:38:34;;;;;;;3.97;1.63;;;29.70;99.90;;;;;;5032046;28;20305;-51
2022/09/14 10:41:21;;;;;;;2.08;1.65;;;29.60;99.90;;;;;;5031922;28;20256;-50
2022/09/14 10:44:20;;;;;;;3.90;1.90;;;29.20;99.90;;;;;;5029845;28;20216;-50
2022/09/14 10:47:05;;;;;;;1.60;1.50;;;28.50;99.90;;;;;;5023006;28;20198;-49
2022/09/14 10:49:46;;;;;;;2.88;1.90;;;28.40;99.90;;;;;;5029287;28;20203;-49
2022/09/14 10:52:20;;;;;;;4.38;2.40;;;28.40;99.90;;;;;;5025465;28;20198;-49
2022/09/14 10:55:03;;;;;;;1.83;1.45;;;28.40;99.90;;;;;;5028221;28;20441;-49
2022/09/14 10:57:42;;;;;;;2.63;1.50;;;28.10;99.90;;;;;;5031439;28;20782;-49
2022/09/14 11:00:18;;;;;;;3.55;1.27;;;28.20;99.90;;;;;;5026350;28;20199;-49
2022/09/14 11:03:17;;;;;;;1.40;1.30;;;28.10;99.90;;;;;;5029172;28;20202;-49
2022/09/14 11:05:53;;;;;;;1.50;1.40;;;28.00;99.90;;;;;;5031146;28;20227;-50
2022/09/14 11:08:31;;;;;;;3.60;2.22;;;27.80;99.90;;;;;;5031461;28;20221;-49
2022/09/14 11:11:18;;;;;;;3.22;1.67;;;27.60;99.90;;;;;;5024715;28;20203;-49
2022/09/14 11:14:17;;;;;;;5.22;1.88;;;27.40;99.90;;;;;;5028955;28;20194;-49
2022/09/14 11:17:05;;;;;;;2.05;1.48;;;27.00;99.90;;;;;;5020865;28;20256;-49
2022/09/14 11:19:39;;;;;;;4.60;2.17;;;26.90;99.90;;;;;;5030262;28;20284;-49
2022/09/14 11:22:12;;;;;;;1.90;1.80;;;26.50;99.90;;;;;;5031006;28;20224;-49
2022/09/14 11:24:44;;;;;;;5.03;2.30;;;26.30;99.90;;;;;;5031042;28;20249;-49
2022/09/14 11:27:18;;;;;;;6.07;1.98;;;26.10;99.90;;;;;;5042266;28;20219;-49
2022/09/14 11:29:52;;;;;;;2.20;1.88;;;26.10;99.90;;;;;;5027699;28;20722;-49
2022/09/14 11:32:23;;;;;;;3.55;2.13;;;25.90;99.90;;;;;;5020497;28;20256;-49
2022/09/14 11:34:55;;;;;;;5.10;2.40;;;25.80;99.90;;;;;;5028919;28;20202;-49
2022/09/14 11:37:29;;;;;;;2.28;2.08;;;25.60;99.90;;;;;;5021564;28;20597;-49
2022/09/14 11:40:05;;;;;;;3.97;2.00;;;25.30;99.90;;;;;;5029768;28;20455;-49
2022/09/14 11:42:35;;;;;;;3.53;2.73;;;25.00;99.90;;;;;;5033420;28;20233;-49
2022/09/14 11:45:06;;;;;;;1.93;1.77;;;24.70;99.90;;;;;;5033324;28;20704;-49
2022/09/14 11:47:38;;;;;;;5.17;2.20;;;24.60;99.90;;;;;;5034079;28;20225;-49
2022/09/14 11:50:15;;;;;;;2.40;1.73;;;24.60;99.90;;;;;;5036337;28;20198;-48
2022/09/14 11:52:44;;;;;;;4.03;2.50;;;24.60;99.90;;;;;;5026225;28;20358;-49
2022/09/14 11:55:17;;;;;;;4.33;2.33;;;24.60;99.90;;;;;;5040980;28;20672;-49
2022/09/14 11:57:45;;;;;;;3.53;1.83;;;24.80;99.90;;;;;;5034746;28;20222;-49
2022/09/14 12:00:45;;;;;;;2.83;1.80;;;24.90;99.90;;;;;;5024182;28;20207;-50
2022/09/14 12:03:20;;;;;;;4.00;2.20;;;25.10;99.90;;;;;;5027988;28;20218;-49
2022/09/14 12:05:49;;;;;;;2.63;1.57;;;25.40;99.90;;;;;;5041114;28;20209;-49
2022/09/14 12:08:39;;;;;;;3.55;1.45;;;25.60;99.90;;;;;;5052148;28;20727;-48
2022/09/14 12:11:30;;;;;;;3.07;2.40;;;25.70;99.90;;;;;;5021238;28;20199;-51
2022/09/14 12:14:29;;;;;;;3.90;2.17;;;25.80;99.90;;;;;;5034063;28;20203;-49
2022/09/14 12:17:17;;;;;;;1.65;1.60;;;25.60;99.90;;;;;;5034730;28;20222;-51
2022/09/14 12:19:46;;;;;;;4.00;2.40;;;25.50;99.90;;;;;;5024480;28;20265;-50
2022/09/14 12:22:30;;;;;;;4.18;1.80;;;25.50;99.90;;;;;;5034452;28;20309;-49
2022/09/14 12:25:01;;;;;;;7.23;1.80;;;25.40;99.90;;;;;;5034367;28;20276;-51
2022/09/14 12:27:32;;;;;;;4.43;2.00;;;25.20;99.90;;;;;;5034616;28;20229;-49
2022/09/14 12:29:59;;;;;;;2.00;1.80;;;25.10;99.90;;;;;;5025305;28;20302;-51
2022/09/14 12:32:39;;;;;;;2.30;1.90;;;24.90;99.90;;;;;;5034146;28;20320;-49
2022/09/14 12:35:46;;;;;;;4.00;1.60;;;24.70;99.90;;;;;;5018547;28;20281;-51
2022/09/14 12:38:41;;;;;;;5.32;2.08;;;24.60;99.90;;;;;;5025525;28;20226;-50
2022/09/14 12:41:41;;;;;;;1.88;1.77;;;24.40;99.90;;;;;;5034163;28;20206;-48
2022/09/14 12:44:30;;;;;;;7.83;3.20;;;24.30;99.90;;;;;;5025401;28;20199;-51
2022/09/14 12:46:58;;;;;;;3.23;2.20;;;24.20;99.90;;;;;;5026577;28;20226;-52
2022/09/14 12:49:35;;;;;;;7.10;2.63;;;24.10;99.90;;;;;;5025848;28;20202;-48
2022/09/14 12:52:30;;;;;;;4.07;2.23;;;24.00;99.90;;;;;;5031922;28;20198;-51
2022/09/14 12:55:13;;;;;;;2.43;1.97;;;24.00;99.90;;;;;;5025431;28;20219;-49
2022/09/14 12:57:48;;;;;;;4.03;2.40;;;23.90;99.90;;;;;;5030770;28;20623;-49
2022/09/14 13:00:19;;;;;;;2.53;2.17;;;24.00;99.90;;;;;;5030931;28;20260;-50
2022/09/14 13:03:22;;;;;;;2.43;2.10;;;24.00;99.90;;;;;;5038446;28;20203;-50
2022/09/14 13:05:49;;;;;;;2.00;1.90;;;24.00;99.90;;;;;;5017166;28;20309;-50
2022/09/14 13:08:25;;;;;;;4.23;2.50;;;23.90;99.90;;;;;;5033495;28;20241;-50
2022/09/14 13:10:52;;;;;;;6.53;2.90;;;23.90;99.90;;;;;;5032995;28;20260;-50